sensor_id;sensor_type;location;lat;lon;timestamp;temperature;humidity
18305;DHT22;9278;52.156;21.048;2023-02-01T00:01:23;3.00;1.00
18305;DHT22;9278;52.156;21.048;2023-02-01T00:03:51;3.10;71.30
18305;DHT22;9278;52.156;21.048;2023-02-01T00:06:19;2.90;99.90
18305;DHT22;9278;52.156;21.048;2023-02-01T00:08:47;3.10;99.90
18305;DHT22;9278;52.156;21.048;2023-02-01T00:11:16;3.10;99.90
18305;DHT22;9278;52.156;21.048;2023-02-01T00:13:46;3.20;99.90
18305;DHT22;9278;52.156;21.048;2023-02-01T00:16:16;3.00;96.30
18305;DHT22;9278;52.156;21.048;2023-02-01T00:18:45;3.10;36.40
18305;DHT22;9278;52.156;21.048;2023-02-01T00:21:15;3.20;1.00
18305;DHT22;9278;52.156;21.048;2023-02-01T00:23:44;3.10;1.00
18305;DHT22;9278;52.156;21.048;2023-02-01T00:26:15;3.20;1.00
18305;DHT22;9278;52.156;21.048;2023-02-01T00:28:44;3.30;1.00
18305;DHT22;9278;52.156;21.048;2023-02-01T00:31:14;3.30;1.00
18305;DHT22;9278;52.156;21.048;2023-02-01T00:33:42;3.40;1.00
18305;DHT22;9278;52.156;21.048;2023-02-01T00:36:15;3.50;1.00
18305;DHT22;9278;52.156;21.048;2023-02-01T00:38:43;3.50;1.00
18305;DHT22;9278;52.156;21.048;2023-02-01T00:41:14;3.50;1.00
18305;DHT22;9278;52.156;21.048;2023-02-01T00:43:43;3.60;1.00
18305;DHT22;9278;52.156;21.048;2023-02-01T00:46:14;3.60;1.00
18305;DHT22;9278;52.156;21.048;2023-02-01T00:48:43;3.60;1.00
18305;DHT22;9278;52.156;21.048;2023-02-01T00:51:14;3.60;1.00
18305;DHT22;9278;52.156;21.048;2023-02-01T00:53:43;3.70;1.00
18305;DHT22;9278;52.156;21.048;2023-02-01T00:56:12;3.70;1.00
18305;DHT22;9278;52.156;21.048;2023-02-01T00:58:41;3.70;1.00
18305;DHT22;9278;52.156;21.048;2023-02-01T01:01:16;3.80;1.00
18305;DHT22;9278;52.156;21.048;2023-02-01T01:03:46;3.80;1.00
18305;DHT22;9278;52.156;21.048;2023-02-01T01:06:19;3.70;1.00
18305;DHT22;9278;52.156;21.048;2023-02-01T01:08:50;3.70;1.00
18305;DHT22;9278;52.156;21.048;2023-02-01T01:11:21;3.70;1.00
18305;DHT22;9278;52.156;21.048;2023-02-01T01:13:51;3.70;1.00
18305;DHT22;9278;52.156;21.048;2023-02-01T01:16:22;3.60;1.00
18305;DHT22;9278;52.156;21.048;2023-02-01T01:18:51;3.60;99.90
18305;DHT22;9278;52.156;21.048;2023-02-01T01:21:20;3.50;99.90
18305;DHT22;9278;52.156;21.048;2023-02-01T01:23:48;3.40;99.90
18305;DHT22;9278;52.156;21.048;2023-02-01T01:26:18;3.40;99.90
18305;DHT22;9278;52.156;21.048;2023-02-01T01:28:47;3.30;99.90
18305;DHT22;9278;52.156;21.048;2023-02-01T01:31:17;3.30;99.90
18305;DHT22;9278;52.156;21.048;2023-02-01T01:33:50;3.30;99.90
18305;DHT22;9278;52.156;21.048;2023-02-01T01:36:19;3.40;99.90
18305;DHT22;9278;52.156;21.048;2023-02-01T01:38:48;3.60;99.90
18305;DHT22;9278;52.156;21.048;2023-02-01T01:41:20;3.50;99.90
18305;DHT22;9278;52.156;21.048;2023-02-01T01:43:52;3.50;99.90
18305;DHT22;9278;52.156;21.048;2023-02-01T01:46:24;3.60;99.90
18305;DHT22;9278;52.156;21.048;2023-02-01T01:48:59;3.60;99.90
18305;DHT22;9278;52.156;21.048;2023-02-01T01:51:33;3.60;99.90
18305;DHT22;9278;52.156;21.048;2023-02-01T01:54:09;3.50;99.90
18305;DHT22;9278;52.156;21.048;2023-02-01T01:56:40;3.60;99.90
18305;DHT22;9278;52.156;21.048;2023-02-01T01:59:09;3.50;99.90
18305;DHT22;9278;52.156;21.048;2023-02-01T02:01:38;3.50;99.90
18305;DHT22;9278;52.156;21.048;2023-02-01T02:04:07;3.50;99.90
18305;DHT22;9278;52.156;21.048;2023-02-01T02:06:41;3.60;99.90
18305;DHT22;9278;52.156;21.048;2023-02-01T02:09:12;3.60;99.90
18305;DHT22;9278;52.156;21.048;2023-02-01T02:11:40;3.50;99.90
18305;DHT22;9278;52.156;21.048;2023-02-01T02:14:11;3.60;99.90
18305;DHT22;9278;52.156;21.048;2023-02-01T02:22:55;3.60;99.90
18305;DHT22;9278;52.156;21.048;2023-02-01T02:25:50;3.50;99.90
18305;DHT22;9278;52.156;21.048;2023-02-01T02:28:51;3.50;99.90
18305;DHT22;9278;52.156;21.048;2023-02-01T02:34:21;3.40;99.90
18305;DHT22;9278;52.156;21.048;2023-02-01T02:37:02;3.50;99.90
18305;DHT22;9278;52.156;21.048;2023-02-01T02:39:41;3.50;99.90
18305;DHT22;9278;52.156;21.048;2023-02-01T02:42:16;3.60;99.90
18305;DHT22;9278;52.156;21.048;2023-02-01T02:45:06;3.60;99.90
18305;DHT22;9278;52.156;21.048;2023-02-01T02:47:56;3.50;99.90
18305;DHT22;9278;52.156;21.048;2023-02-01T02:50:29;3.50;99.90
18305;DHT22;9278;52.156;21.048;2023-02-01T02:53:18;3.50;99.90
18305;DHT22;9278;52.156;21.048;2023-02-01T02:56:06;3.50;99.90
18305;DHT22;9278;52.156;21.048;2023-02-01T02:58:54;3.50;99.90
18305;DHT22;9278;52.156;21.048;2023-02-01T03:01:40;3.50;99.90
18305;DHT22;9278;52.156;21.048;2023-02-01T03:04:26;3.40;99.90
18305;DHT22;9278;52.156;21.048;2023-02-01T03:06:56;3.40;99.90
18305;DHT22;9278;52.156;21.048;2023-02-01T03:09:27;3.40;99.90
18305;DHT22;9278;52.156;21.048;2023-02-01T03:12:01;3.40;99.90
18305;DHT22;9278;52.156;21.048;2023-02-01T03:14:51;3.50;99.90
18305;DHT22;9278;52.156;21.048;2023-02-01T03:17:25;3.50;99.90
18305;DHT22;9278;52.156;21.048;2023-02-01T03:19:57;3.50;99.90
18305;DHT22;9278;52.156;21.048;2023-02-01T03:22:30;3.50;99.90
18305;DHT22;9278;52.156;21.048;2023-02-01T03:25:06;3.50;99.90
18305;DHT22;9278;52.156;21.048;2023-02-01T03:27:41;3.40;99.90
18305;DHT22;9278;52.156;21.048;2023-02-01T03:30:15;3.40;99.90
18305;DHT22;9278;52.156;21.048;2023-02-01T03:32:48;3.40;99.90
18305;DHT22;9278;52.156;21.048;2023-02-01T03:35:35;3.40;99.90
18305;DHT22;9278;52.156;21.048;2023-02-01T03:38:12;3.20;1.00
18305;DHT22;9278;52.156;21.048;2023-02-01T03:40:52;3.10;1.00
18305;DHT22;9278;52.156;21.048;2023-02-01T03:43:23;3.00;1.00
18305;DHT22;9278;52.156;21.048;2023-02-01T03:45:59;3.00;1.00
18305;DHT22;9278;52.156;21.048;2023-02-01T03:48:29;3.20;1.00
18305;DHT22;9278;52.156;21.048;2023-02-01T03:51:01;3.20;1.00
18305;DHT22;9278;52.156;21.048;2023-02-01T03:53:34;3.30;1.00
18305;DHT22;9278;52.156;21.048;2023-02-01T03:56:06;3.30;99.90
18305;DHT22;9278;52.156;21.048;2023-02-01T03:58:35;3.50;99.90
18305;DHT22;9278;52.156;21.048;2023-02-01T04:01:03;3.50;99.90
18305;DHT22;9278;52.156;21.048;2023-02-01T04:03:35;3.50;99.90
18305;DHT22;9278;52.156;21.048;2023-02-01T04:06:03;3.50;99.90
18305;DHT22;9278;52.156;21.048;2023-02-01T04:08:34;3.60;99.90
18305;DHT22;9278;52.156;21.048;2023-02-01T04:11:02;3.60;99.90
18305;DHT22;9278;52.156;21.048;2023-02-01T04:13:30;3.50;99.90
18305;DHT22;9278;52.156;21.048;2023-02-01T04:15:59;3.50;99.90
18305;DHT22;9278;52.156;21.048;2023-02-01T04:18:27;3.50;99.90
18305;DHT22;9278;52.156;21.048;2023-02-01T04:20:55;3.50;99.90
18305;DHT22;9278;52.156;21.048;2023-02-01T04:23:23;3.60;99.90
18305;DHT22;9278;52.156;21.048;2023-02-01T04:25:53;3.60;99.90
18305;DHT22;9278;52.156;21.048;2023-02-01T04:28:22;3.70;99.90
18305;DHT22;9278;52.156;21.048;2023-02-01T04:30:50;3.60;99.90
18305;DHT22;9278;52.156;21.048;2023-02-01T04:33:19;3.60;99.90
18305;DHT22;9278;52.156;21.048;2023-02-01T04:35:47;3.70;99.90
18305;DHT22;9278;52.156;21.048;2023-02-01T04:38:16;3.70;99.90
18305;DHT22;9278;52.156;21.048;2023-02-01T04:40:47;3.60;99.90
18305;DHT22;9278;52.156;21.048;2023-02-01T04:43:17;3.60;99.90
18305;DHT22;9278;52.156;21.048;2023-02-01T04:45:49;3.60;99.90
18305;DHT22;9278;52.156;21.048;2023-02-01T04:48:18;3.60;99.90
18305;DHT22;9278;52.156;21.048;2023-02-01T04:50:49;3.50;99.90
18305;DHT22;9278;52.156;21.048;2023-02-01T04:53:18;3.60;99.90
18305;DHT22;9278;52.156;21.048;2023-02-01T04:55:48;3.60;99.90
18305;DHT22;9278;52.156;21.048;2023-02-01T04:58:18;3.60;99.90
18305;DHT22;9278;52.156;21.048;2023-02-01T05:00:46;3.70;99.90
18305;DHT22;9278;52.156;21.048;2023-02-01T05:03:14;3.70;99.90
18305;DHT22;9278;52.156;21.048;2023-02-01T05:05:43;3.70;99.90
18305;DHT22;9278;52.156;21.048;2023-02-01T05:08:11;3.70;99.90
18305;DHT22;9278;52.156;21.048;2023-02-01T05:10:39;3.70;99.90
18305;DHT22;9278;52.156;21.048;2023-02-01T05:13:08;3.80;99.90
18305;DHT22;9278;52.156;21.048;2023-02-01T05:15:55;3.70;99.90
18305;DHT22;9278;52.156;21.048;2023-02-01T05:18:23;3.70;99.90
18305;DHT22;9278;52.156;21.048;2023-02-01T05:20:51;3.70;99.90
18305;DHT22;9278;52.156;21.048;2023-02-01T05:23:20;3.70;99.90
18305;DHT22;9278;52.156;21.048;2023-02-01T05:25:48;3.70;99.90
18305;DHT22;9278;52.156;21.048;2023-02-01T05:28:16;3.70;99.90
18305;DHT22;9278;52.156;21.048;2023-02-01T05:30:44;3.90;99.90
18305;DHT22;9278;52.156;21.048;2023-02-01T05:33:14;3.70;99.90
18305;DHT22;9278;52.156;21.048;2023-02-01T05:35:42;3.80;99.90
18305;DHT22;9278;52.156;21.048;2023-02-01T05:38:10;3.70;99.90
18305;DHT22;9278;52.156;21.048;2023-02-01T05:40:39;3.70;99.90
18305;DHT22;9278;52.156;21.048;2023-02-01T05:43:07;3.70;99.90
18305;DHT22;9278;52.156;21.048;2023-02-01T05:45:35;3.70;99.90
18305;DHT22;9278;52.156;21.048;2023-02-01T05:48:04;3.70;99.90
18305;DHT22;9278;52.156;21.048;2023-02-01T05:50:34;3.60;99.90
18305;DHT22;9278;52.156;21.048;2023-02-01T05:53:08;3.50;99.90
18305;DHT22;9278;52.156;21.048;2023-02-01T05:55:36;3.40;99.90
18305;DHT22;9278;52.156;21.048;2023-02-01T05:58:05;3.30;99.90
18305;DHT22;9278;52.156;21.048;2023-02-01T06:00:33;3.40;99.90
18305;DHT22;9278;52.156;21.048;2023-02-01T06:03:02;3.50;99.90
18305;DHT22;9278;52.156;21.048;2023-02-01T06:05:30;3.50;99.90
18305;DHT22;9278;52.156;21.048;2023-02-01T06:08:00;3.50;99.90
18305;DHT22;9278;52.156;21.048;2023-02-01T06:10:28;3.50;99.90
18305;DHT22;9278;52.156;21.048;2023-02-01T06:12:56;3.60;99.90
18305;DHT22;9278;52.156;21.048;2023-02-01T06:15:24;3.70;99.90
18305;DHT22;9278;52.156;21.048;2023-02-01T06:17:52;3.70;99.90
18305;DHT22;9278;52.156;21.048;2023-02-01T06:20:21;3.70;99.90
18305;DHT22;9278;52.156;21.048;2023-02-01T06:22:50;3.70;99.90
18305;DHT22;9278;52.156;21.048;2023-02-01T06:25:20;3.70;99.90
18305;DHT22;9278;52.156;21.048;2023-02-01T06:27:49;3.70;99.90
18305;DHT22;9278;52.156;21.048;2023-02-01T06:30:17;3.80;99.90
18305;DHT22;9278;52.156;21.048;2023-02-01T06:32:50;3.80;99.90
18305;DHT22;9278;52.156;21.048;2023-02-01T06:35:20;3.80;99.90
18305;DHT22;9278;52.156;21.048;2023-02-01T06:37:49;3.80;99.90
18305;DHT22;9278;52.156;21.048;2023-02-01T06:40:17;3.70;99.90
18305;DHT22;9278;52.156;21.048;2023-02-01T06:42:48;3.80;99.90
18305;DHT22;9278;52.156;21.048;2023-02-01T06:45:16;3.70;99.90
18305;DHT22;9278;52.156;21.048;2023-02-01T06:47:44;3.90;99.90
18305;DHT22;9278;52.156;21.048;2023-02-01T06:50:13;3.90;99.90
18305;DHT22;9278;52.156;21.048;2023-02-01T06:52:41;4.00;99.90
18305;DHT22;9278;52.156;21.048;2023-02-01T06:55:09;4.00;99.90
18305;DHT22;9278;52.156;21.048;2023-02-01T06:57:37;4.00;99.90
18305;DHT22;9278;52.156;21.048;2023-02-01T07:00:08;4.00;99.90
18305;DHT22;9278;52.156;21.048;2023-02-01T07:02:37;3.90;99.90
18305;DHT22;9278;52.156;21.048;2023-02-01T07:05:06;4.10;99.90
18305;DHT22;9278;52.156;21.048;2023-02-01T07:07:34;3.90;99.90
18305;DHT22;9278;52.156;21.048;2023-02-01T07:10:03;4.00;99.90
18305;DHT22;9278;52.156;21.048;2023-02-01T07:12:32;4.00;99.90
18305;DHT22;9278;52.156;21.048;2023-02-01T07:15:00;4.00;99.90
18305;DHT22;9278;52.156;21.048;2023-02-01T07:17:31;4.00;99.90
18305;DHT22;9278;52.156;21.048;2023-02-01T07:19:59;4.00;99.90
18305;DHT22;9278;52.156;21.048;2023-02-01T07:22:28;3.90;99.90
18305;DHT22;9278;52.156;21.048;2023-02-01T07:24:57;4.00;99.90
18305;DHT22;9278;52.156;21.048;2023-02-01T07:27:25;4.10;99.90
18305;DHT22;9278;52.156;21.048;2023-02-01T07:29:53;4.00;99.90
18305;DHT22;9278;52.156;21.048;2023-02-01T07:32:22;4.10;99.90
18305;DHT22;9278;52.156;21.048;2023-02-01T07:34:52;4.00;99.90
18305;DHT22;9278;52.156;21.048;2023-02-01T07:37:20;4.10;99.90
18305;DHT22;9278;52.156;21.048;2023-02-01T07:39:48;4.10;99.90
18305;DHT22;9278;52.156;21.048;2023-02-01T07:42:16;4.10;99.90
18305;DHT22;9278;52.156;21.048;2023-02-01T07:44:45;4.20;99.90
18305;DHT22;9278;52.156;21.048;2023-02-01T07:47:13;4.20;99.90
18305;DHT22;9278;52.156;21.048;2023-02-01T07:49:41;4.30;99.90
18305;DHT22;9278;52.156;21.048;2023-02-01T07:52:11;4.30;99.90
18305;DHT22;9278;52.156;21.048;2023-02-01T07:54:40;4.30;99.90
18305;DHT22;9278;52.156;21.048;2023-02-01T07:57:08;4.20;99.90
18305;DHT22;9278;52.156;21.048;2023-02-01T07:59:38;4.10;99.90
18305;DHT22;9278;52.156;21.048;2023-02-01T08:02:27;4.20;99.90
18305;DHT22;9278;52.156;21.048;2023-02-01T08:04:54;4.20;99.90
18305;DHT22;9278;52.156;21.048;2023-02-01T08:07:24;4.20;99.90
18305;DHT22;9278;52.156;21.048;2023-02-01T08:09:52;4.30;99.90
18305;DHT22;9278;52.156;21.048;2023-02-01T08:12:20;4.40;99.90
18305;DHT22;9278;52.156;21.048;2023-02-01T08:14:51;4.30;99.90
18305;DHT22;9278;52.156;21.048;2023-02-01T08:17:20;4.30;99.90
18305;DHT22;9278;52.156;21.048;2023-02-01T08:19:48;4.30;99.90
18305;DHT22;9278;52.156;21.048;2023-02-01T08:22:17;4.40;99.90
18305;DHT22;9278;52.156;21.048;2023-02-01T08:24:49;4.40;99.90
18305;DHT22;9278;52.156;21.048;2023-02-01T08:27:17;4.40;99.90
18305;DHT22;9278;52.156;21.048;2023-02-01T08:29:45;4.30;99.90
18305;DHT22;9278;52.156;21.048;2023-02-01T08:32:14;4.30;99.90
18305;DHT22;9278;52.156;21.048;2023-02-01T08:34:42;4.40;99.90
18305;DHT22;9278;52.156;21.048;2023-02-01T08:37:10;4.30;99.90
18305;DHT22;9278;52.156;21.048;2023-02-01T08:39:38;4.30;99.90
18305;DHT22;9278;52.156;21.048;2023-02-01T08:42:14;4.40;99.90
18305;DHT22;9278;52.156;21.048;2023-02-01T08:45:00;4.30;99.90
18305;DHT22;9278;52.156;21.048;2023-02-01T08:47:29;4.30;99.90
18305;DHT22;9278;52.156;21.048;2023-02-01T08:49:58;4.30;99.90
18305;DHT22;9278;52.156;21.048;2023-02-01T08:52:26;4.40;99.90
18305;DHT22;9278;52.156;21.048;2023-02-01T08:54:54;4.40;99.90
18305;DHT22;9278;52.156;21.048;2023-02-01T08:57:24;4.40;99.90
18305;DHT22;9278;52.156;21.048;2023-02-01T08:59:52;4.40;99.90
18305;DHT22;9278;52.156;21.048;2023-02-01T09:02:20;4.40;99.90
18305;DHT22;9278;52.156;21.048;2023-02-01T09:04:48;4.50;99.90
18305;DHT22;9278;52.156;21.048;2023-02-01T09:07:17;4.60;99.90
18305;DHT22;9278;52.156;21.048;2023-02-01T09:09:46;4.50;99.90
18305;DHT22;9278;52.156;21.048;2023-02-01T09:12:14;4.60;99.90
18305;DHT22;9278;52.156;21.048;2023-02-01T09:14:44;4.60;99.90
18305;DHT22;9278;52.156;21.048;2023-02-01T09:17:12;4.70;99.90
18305;DHT22;9278;52.156;21.048;2023-02-01T09:19:40;4.80;99.90
18305;DHT22;9278;52.156;21.048;2023-02-01T09:22:09;4.60;99.90
18305;DHT22;9278;52.156;21.048;2023-02-01T09:24:37;4.80;99.90
18305;DHT22;9278;52.156;21.048;2023-02-01T09:27:05;4.80;99.90
18305;DHT22;9278;52.156;21.048;2023-02-01T09:29:34;4.80;99.90
18305;DHT22;9278;52.156;21.048;2023-02-01T09:32:04;4.80;99.90
18305;DHT22;9278;52.156;21.048;2023-02-01T09:34:34;4.80;99.90
18305;DHT22;9278;52.156;21.048;2023-02-01T09:37:03;4.80;99.90
18305;DHT22;9278;52.156;21.048;2023-02-01T09:39:31;4.80;99.90
18305;DHT22;9278;52.156;21.048;2023-02-01T09:42:12;4.80;99.90
18305;DHT22;9278;52.156;21.048;2023-02-01T09:45:02;4.80;99.90
18305;DHT22;9278;52.156;21.048;2023-02-01T09:47:35;4.90;99.90
18305;DHT22;9278;52.156;21.048;2023-02-01T09:50:08;4.80;99.90
18305;DHT22;9278;52.156;21.048;2023-02-01T09:52:42;4.90;99.90
18305;DHT22;9278;52.156;21.048;2023-02-01T09:55:15;5.10;99.90
18305;DHT22;9278;52.156;21.048;2023-02-01T09:57:47;5.30;99.90
18305;DHT22;9278;52.156;21.048;2023-02-01T10:00:22;5.30;99.90
18305;DHT22;9278;52.156;21.048;2023-02-01T10:02:55;5.50;99.90
18305;DHT22;9278;52.156;21.048;2023-02-01T10:05:38;5.40;99.90
18305;DHT22;9278;52.156;21.048;2023-02-01T10:08:15;5.50;99.90
18305;DHT22;9278;52.156;21.048;2023-02-01T10:10:47;5.60;99.90
18305;DHT22;9278;52.156;21.048;2023-02-01T10:13:30;5.70;99.90
18305;DHT22;9278;52.156;21.048;2023-02-01T10:16:12;5.60;99.90
18305;DHT22;9278;52.156;21.048;2023-02-01T10:19:14;5.60;99.90
18305;DHT22;9278;52.156;21.048;2023-02-01T10:21:53;5.50;99.90
18305;DHT22;9278;52.156;21.048;2023-02-01T10:24:37;5.70;99.90
18305;DHT22;9278;52.156;21.048;2023-02-01T10:27:15;5.50;99.90
18305;DHT22;9278;52.156;21.048;2023-02-01T10:29:48;5.40;99.90
18305;DHT22;9278;52.156;21.048;2023-02-01T10:32:23;5.30;99.90
18305;DHT22;9278;52.156;21.048;2023-02-01T10:34:58;5.30;99.90
18305;DHT22;9278;52.156;21.048;2023-02-01T10:37:29;5.40;99.90
18305;DHT22;9278;52.156;21.048;2023-02-01T10:40:01;5.30;99.90
18305;DHT22;9278;52.156;21.048;2023-02-01T10:42:32;5.20;99.90
18305;DHT22;9278;52.156;21.048;2023-02-01T10:45:02;5.10;99.90
18305;DHT22;9278;52.156;21.048;2023-02-01T10:47:31;5.40;99.90
18305;DHT22;9278;52.156;21.048;2023-02-01T10:50:09;5.50;99.90
18305;DHT22;9278;52.156;21.048;2023-02-01T10:52:46;5.40;99.90
18305;DHT22;9278;52.156;21.048;2023-02-01T10:55:39;5.50;99.90
18305;DHT22;9278;52.156;21.048;2023-02-01T10:58:14;5.30;99.90
18305;DHT22;9278;52.156;21.048;2023-02-01T11:00:46;5.50;99.90
18305;DHT22;9278;52.156;21.048;2023-02-01T11:03:37;5.80;99.90
18305;DHT22;9278;52.156;21.048;2023-02-01T11:06:18;5.40;99.90
18305;DHT22;9278;52.156;21.048;2023-02-01T11:08:50;5.50;99.90
18305;DHT22;9278;52.156;21.048;2023-02-01T11:11:19;5.50;99.90
18305;DHT22;9278;52.156;21.048;2023-02-01T11:13:53;5.60;99.90
18305;DHT22;9278;52.156;21.048;2023-02-01T11:16:29;5.70;99.90
18305;DHT22;9278;52.156;21.048;2023-02-01T11:18:59;5.40;99.90
18305;DHT22;9278;52.156;21.048;2023-02-01T11:21:29;5.50;99.90
18305;DHT22;9278;52.156;21.048;2023-02-01T11:24:01;5.40;99.90
18305;DHT22;9278;52.156;21.048;2023-02-01T11:26:30;5.50;99.90
18305;DHT22;9278;52.156;21.048;2023-02-01T11:29:03;5.80;99.90
18305;DHT22;9278;52.156;21.048;2023-02-01T11:31:33;6.10;99.90
18305;DHT22;9278;52.156;21.048;2023-02-01T11:34:07;6.10;99.90
18305;DHT22;9278;52.156;21.048;2023-02-01T11:36:38;6.00;99.90
18305;DHT22;9278;52.156;21.048;2023-02-01T11:39:15;5.70;99.90
18305;DHT22;9278;52.156;21.048;2023-02-01T11:41:56;5.60;99.90
18305;DHT22;9278;52.156;21.048;2023-02-01T11:44:31;5.50;99.90
18305;DHT22;9278;52.156;21.048;2023-02-01T11:47:19;5.40;99.90
18305;DHT22;9278;52.156;21.048;2023-02-01T11:49:48;5.40;99.90
18305;DHT22;9278;52.156;21.048;2023-02-01T11:52:35;5.60;99.90
18305;DHT22;9278;52.156;21.048;2023-02-01T12:01:10;5.70;99.90
18305;DHT22;9278;52.156;21.048;2023-02-01T12:06:51;6.10;99.90
18305;DHT22;9278;52.156;21.048;2023-02-01T12:09:39;5.60;99.90
18305;DHT22;9278;52.156;21.048;2023-02-01T12:12:17;5.70;99.90
18305;DHT22;9278;52.156;21.048;2023-02-01T12:15:03;6.00;99.90
18305;DHT22;9278;52.156;21.048;2023-02-01T12:17:55;6.10;99.90
18305;DHT22;9278;52.156;21.048;2023-02-01T12:20:54;5.80;99.90
18305;DHT22;9278;52.156;21.048;2023-02-01T12:23:38;6.00;99.90
18305;DHT22;9278;52.156;21.048;2023-02-01T12:26:30;6.00;99.90
18305;DHT22;9278;52.156;21.048;2023-02-01T12:29:15;5.70;99.90
18305;DHT22;9278;52.156;21.048;2023-02-01T12:31:53;5.70;99.90
18305;DHT22;9278;52.156;21.048;2023-02-01T12:34:34;5.80;99.90
18305;DHT22;9278;52.156;21.048;2023-02-01T12:37:13;5.80;99.90
18305;DHT22;9278;52.156;21.048;2023-02-01T12:39:52;5.40;99.90
18305;DHT22;9278;52.156;21.048;2023-02-01T12:42:29;5.40;99.90
18305;DHT22;9278;52.156;21.048;2023-02-01T12:45:06;5.40;99.90
18305;DHT22;9278;52.156;21.048;2023-02-01T12:47:41;5.50;99.90
18305;DHT22;9278;52.156;21.048;2023-02-01T12:50:16;5.40;99.90
18305;DHT22;9278;52.156;21.048;2023-02-01T12:52:50;5.40;99.90
18305;DHT22;9278;52.156;21.048;2023-02-01T12:55:22;5.40;99.90
18305;DHT22;9278;52.156;21.048;2023-02-01T12:57:56;5.60;99.90
18305;DHT22;9278;52.156;21.048;2023-02-01T13:00:30;5.30;99.90
18305;DHT22;9278;52.156;21.048;2023-02-01T13:03:05;5.30;99.90
18305;DHT22;9278;52.156;21.048;2023-02-01T13:05:46;5.40;99.90
18305;DHT22;9278;52.156;21.048;2023-02-01T13:08:21;5.40;99.90
18305;DHT22;9278;52.156;21.048;2023-02-01T13:10:56;5.40;99.90
18305;DHT22;9278;52.156;21.048;2023-02-01T13:13:30;5.50;99.90
18305;DHT22;9278;52.156;21.048;2023-02-01T13:16:07;5.50;99.90
18305;DHT22;9278;52.156;21.048;2023-02-01T13:18:41;5.30;99.90
18305;DHT22;9278;52.156;21.048;2023-02-01T13:21:13;5.60;99.90
18305;DHT22;9278;52.156;21.048;2023-02-01T13:23:46;5.60;99.90
18305;DHT22;9278;52.156;21.048;2023-02-01T13:26:14;5.70;99.90
18305;DHT22;9278;52.156;21.048;2023-02-01T13:28:47;5.60;99.90
18305;DHT22;9278;52.156;21.048;2023-02-01T13:31:46;5.30;99.90
18305;DHT22;9278;52.156;21.048;2023-02-01T13:34:44;5.40;99.90
18305;DHT22;9278;52.156;21.048;2023-02-01T13:40:18;5.20;99.90
18305;DHT22;9278;52.156;21.048;2023-02-01T13:42:51;5.10;99.90
18305;DHT22;9278;52.156;21.048;2023-02-01T13:45:24;5.10;99.90
18305;DHT22;9278;52.156;21.048;2023-02-01T13:47:56;5.10;99.90
18305;DHT22;9278;52.156;21.048;2023-02-01T13:50:29;5.00;99.90
18305;DHT22;9278;52.156;21.048;2023-02-01T13:53:00;5.10;99.90
18305;DHT22;9278;52.156;21.048;2023-02-01T13:55:31;5.30;99.90
18305;DHT22;9278;52.156;21.048;2023-02-01T13:58:04;5.20;99.90
18305;DHT22;9278;52.156;21.048;2023-02-01T14:00:36;5.10;99.90
18305;DHT22;9278;52.156;21.048;2023-02-01T14:03:20;5.00;99.90
18305;DHT22;9278;52.156;21.048;2023-02-01T14:06:05;5.00;99.90
18305;DHT22;9278;52.156;21.048;2023-02-01T14:11:35;4.80;99.90
18305;DHT22;9278;52.156;21.048;2023-02-01T14:17:35;4.90;99.90
18305;DHT22;9278;52.156;21.048;2023-02-01T14:23:24;4.90;99.90
18305;DHT22;9278;52.156;21.048;2023-02-01T14:26:15;5.10;99.90
18305;DHT22;9278;52.156;21.048;2023-02-01T14:28:53;5.30;99.90
18305;DHT22;9278;52.156;21.048;2023-02-01T14:31:42;5.00;99.90
18305;DHT22;9278;52.156;21.048;2023-02-01T14:34:17;4.80;99.90
18305;DHT22;9278;52.156;21.048;2023-02-01T14:36:50;4.70;99.90
18305;DHT22;9278;52.156;21.048;2023-02-01T14:39:21;4.80;99.90
18305;DHT22;9278;52.156;21.048;2023-02-01T14:41:54;4.80;99.90
18305;DHT22;9278;52.156;21.048;2023-02-01T14:44:46;4.90;99.90
18305;DHT22;9278;52.156;21.048;2023-02-01T14:47:28;4.90;99.90
18305;DHT22;9278;52.156;21.048;2023-02-01T14:50:22;4.90;99.90
18305;DHT22;9278;52.156;21.048;2023-02-01T14:55:43;5.00;99.90
18305;DHT22;9278;52.156;21.048;2023-02-01T14:58:31;5.20;99.90
18305;DHT22;9278;52.156;21.048;2023-02-01T15:01:02;5.20;99.90
18305;DHT22;9278;52.156;21.048;2023-02-01T15:03:50;5.10;99.90
18305;DHT22;9278;52.156;21.048;2023-02-01T15:06:29;5.20;99.90
18305;DHT22;9278;52.156;21.048;2023-02-01T15:09:02;5.10;99.90
18305;DHT22;9278;52.156;21.048;2023-02-01T15:11:30;5.10;99.90
18305;DHT22;9278;52.156;21.048;2023-02-01T15:13:58;5.10;99.90
18305;DHT22;9278;52.156;21.048;2023-02-01T15:16:27;5.00;99.90
18305;DHT22;9278;52.156;21.048;2023-02-01T15:19:10;5.00;99.90
18305;DHT22;9278;52.156;21.048;2023-02-01T15:21:48;5.00;99.90
18305;DHT22;9278;52.156;21.048;2023-02-01T15:24:21;5.00;99.90
18305;DHT22;9278;52.156;21.048;2023-02-01T15:26:50;5.00;99.90
18305;DHT22;9278;52.156;21.048;2023-02-01T15:29:20;5.00;99.90
18305;DHT22;9278;52.156;21.048;2023-02-01T15:31:51;4.90;99.90
18305;DHT22;9278;52.156;21.048;2023-02-01T15:34:21;4.80;99.90
18305;DHT22;9278;52.156;21.048;2023-02-01T15:36:51;4.80;99.90
18305;DHT22;9278;52.156;21.048;2023-02-01T15:39:29;4.90;99.90
18305;DHT22;9278;52.156;21.048;2023-02-01T15:42:08;4.90;99.90
18305;DHT22;9278;52.156;21.048;2023-02-01T15:44:39;4.80;99.90
18305;DHT22;9278;52.156;21.048;2023-02-01T15:47:14;4.90;99.90
18305;DHT22;9278;52.156;21.048;2023-02-01T15:49:45;4.90;99.90
18305;DHT22;9278;52.156;21.048;2023-02-01T15:52:25;4.90;99.90
18305;DHT22;9278;52.156;21.048;2023-02-01T15:54:56;4.90;99.90
18305;DHT22;9278;52.156;21.048;2023-02-01T15:57:27;4.90;99.90
18305;DHT22;9278;52.156;21.048;2023-02-01T16:00:00;4.90;99.90
18305;DHT22;9278;52.156;21.048;2023-02-01T16:02:42;4.90;99.90
18305;DHT22;9278;52.156;21.048;2023-02-01T16:05:29;4.80;99.90
18305;DHT22;9278;52.156;21.048;2023-02-01T16:08:02;4.70;99.90
18305;DHT22;9278;52.156;21.048;2023-02-01T16:10:32;4.60;99.90
18305;DHT22;9278;52.156;21.048;2023-02-01T16:13:05;4.50;99.90
18305;DHT22;9278;52.156;21.048;2023-02-01T16:15:34;4.50;99.90
18305;DHT22;9278;52.156;21.048;2023-02-01T16:18:02;4.50;99.90
18305;DHT22;9278;52.156;21.048;2023-02-01T16:20:30;4.50;99.90
18305;DHT22;9278;52.156;21.048;2023-02-01T16:23:01;4.60;99.90
18305;DHT22;9278;52.156;21.048;2023-02-01T16:25:30;4.60;99.90
18305;DHT22;9278;52.156;21.048;2023-02-01T16:27:58;4.60;99.90
18305;DHT22;9278;52.156;21.048;2023-02-01T16:30:26;4.60;99.90
18305;DHT22;9278;52.156;21.048;2023-02-01T16:32:55;4.60;99.90
18305;DHT22;9278;52.156;21.048;2023-02-01T16:35:26;4.60;99.90
18305;DHT22;9278;52.156;21.048;2023-02-01T16:37:54;4.60;99.90
18305;DHT22;9278;52.156;21.048;2023-02-01T16:40:24;4.60;99.90
18305;DHT22;9278;52.156;21.048;2023-02-01T16:42:53;4.60;99.90
18305;DHT22;9278;52.156;21.048;2023-02-01T16:45:22;4.50;99.90
18305;DHT22;9278;52.156;21.048;2023-02-01T16:47:54;4.50;99.90
18305;DHT22;9278;52.156;21.048;2023-02-01T16:50:24;4.50;99.90
18305;DHT22;9278;52.156;21.048;2023-02-01T16:52:54;4.50;99.90
18305;DHT22;9278;52.156;21.048;2023-02-01T16:55:24;4.50;99.90
18305;DHT22;9278;52.156;21.048;2023-02-01T16:57:53;4.50;99.90